Time;durP1;ratioP1;P1;durP2;ratioP2;P2;SDS_P1;SDS_P2;PMS_P1;PMS_P2;Temp;Humidity;BMP_temperature;BMP_pressure;BME280_temperature;BME280_humidity;BME280_pressure;Samples;Min_cycle;Max_cycle;Signal;HPM_P1;HPM_P2
2022/11/08 00:01:57;;;;;;;24.35;14.70;;;;;;;9.05;92.61;100750.33;1690087;84;26003;-80
2022/11/08 00:04:24;;;;;;;26.40;14.80;;;;;;;9.06;92.62;100742.66;1678440;84;28405;-80
2022/11/08 00:15:08;;;;;;;27.90;16.10;;;;;;;9.06;92.53;100748.50;1682989;84;25913;-80
2022/11/08 00:17:35;;;;;;;23.22;15.50;;;;;;;9.06;92.69;100755.18;1687989;84;27455;-80
2022/11/08 00:20:01;;;;;;;23.55;16.25;;;;;;;9.08;92.81;100756.68;1691265;84;26078;-81
2022/11/08 00:22:31;;;;;;;26.60;15.50;;;;;;;9.10;92.85;100759.17;1692863;84;25802;-81
2022/11/08 00:24:58;;;;;;;26.40;16.25;;;;;;;9.11;92.87;100754.17;1692377;84;26158;-80
2022/11/08 00:27:25;;;;;;;24.07;15.58;;;;;;;9.11;92.92;100752.30;1692213;84;25316;-80
2022/11/08 00:29:52;;;;;;;21.70;14.43;;;;;;;9.14;93.03;100749.80;1678727;84;27439;-80
2022/11/08 00:32:22;;;;;;;23.20;14.35;;;;;;;9.16;93.06;100750.45;1687906;84;25786;-81
2022/11/08 00:34:50;;;;;;;23.62;15.80;;;;;;;9.18;93.04;100745.77;1678578;84;25769;-81
2022/11/08 00:37:18;;;;;;;22.35;15.15;;;;;;;9.18;93.02;100751.11;1689214;84;25770;-80
2022/11/08 00:39:45;;;;;;;21.20;14.18;;;;;;;9.18;93.05;100757.30;1680811;84;26422;-80
2022/11/08 00:42:12;;;;;;;25.52;15.83;;;;;;;9.20;93.07;100746.42;1678837;84;27707;-80
2022/11/08 00:44:38;;;;;;;22.62;15.20;;;;;;;9.23;93.07;100746.09;1686023;84;26548;-80
2022/11/08 00:47:04;;;;;;;23.35;15.45;;;;;;;9.20;92.98;100743.25;1688002;84;25820;-81
2022/11/08 00:49:31;;;;;;;24.63;14.45;;;;;;;9.21;93.06;100744.09;1677866;84;25778;-80
2022/11/08 00:51:57;;;;;;;22.98;14.47;;;;;;;9.20;93.09;100745.92;1679850;84;26440;-80
2022/11/08 00:54:24;;;;;;;26.25;16.40;;;;;;;9.21;93.19;100753.45;1692865;84;28281;-81
2022/11/08 00:56:50;;;;;;;21.68;14.75;;;;;;;9.24;93.25;100742.39;1685977;84;25835;-80
2022/11/08 00:59:18;;;;;;;20.68;15.08;;;;;;;9.25;93.25;100750.26;1676847;84;25733;-80
2022/11/08 01:01:46;;;;;;;26.85;14.60;;;;;;;9.26;93.23;100742.55;1678876;84;26399;-80
2022/11/08 01:04:16;;;;;;;21.12;14.13;;;;;;;9.27;93.21;100739.38;1693686;84;26062;-80
2022/11/08 01:06:42;;;;;;;25.17;14.93;;;;;;;9.28;93.20;100742.40;1690897;84;28271;-80
2022/11/08 01:09:09;;;;;;;29.07;15.18;;;;;;;9.28;93.15;100744.54;1692161;84;25878;-80
2022/11/08 01:11:37;;;;;;;25.45;14.95;;;;;;;9.29;93.19;100743.55;1692119;84;25423;-80
2022/11/08 01:14:04;;;;;;;26.17;15.13;;;;;;;9.29;93.17;100748.05;1659413;84;26401;-81
2022/11/08 01:16:32;;;;;;;22.77;14.55;;;;;;;9.30;93.27;100747.06;1686041;84;25868;-80
2022/11/08 01:19:00;;;;;;;22.25;14.03;;;;;;;9.31;93.31;100748.22;1683282;84;28233;-80
2022/11/08 01:21:27;;;;;;;23.75;14.07;;;;;;;9.32;93.31;100747.19;1691411;84;25766;-82
2022/11/08 01:23:54;;;;;;;20.62;13.88;;;;;;;9.34;93.29;100741.69;1692466;84;26364;-81
2022/11/08 01:26:25;;;;;;;23.27;14.73;;;;;;;9.34;93.18;100743.84;1690632;84;25813;-81
2022/11/08 01:28:52;;;;;;;28.10;14.98;;;;;;;9.32;93.14;100741.84;1689224;84;26008;-80
2022/11/08 01:31:28;;;;;;;24.27;15.25;;;;;;;9.32;93.17;100741.03;1687443;84;28298;-80
2022/11/08 01:33:56;;;;;;;25.12;14.83;;;;;;;9.32;93.30;100737.02;1686124;84;25819;-79
2022/11/08 01:36:26;;;;;;;23.02;15.05;;;;;;;9.33;93.26;100744.02;1689666;84;25868;-80
2022/11/08 01:38:53;;;;;;;22.77;14.07;;;;;;;9.33;93.38;100739.52;1690540;84;26556;-80
2022/11/08 01:41:23;;;;;;;20.35;13.48;;;;;;;9.34;93.41;100743.03;1684288;84;25913;-80
2022/11/08 01:43:52;;;;;;;20.40;13.20;;;;;;;9.35;93.47;100744.67;1687150;84;27432;-80
2022/11/08 01:46:38;;;;;;;21.93;14.30;;;;;;;9.36;93.44;100742.84;1685803;84;25893;-80
2022/11/08 01:49:41;;;;;;;24.12;14.03;;;;;;;9.37;93.57;100739.98;1679297;84;26115;-80
2022/11/08 01:52:27;;;;;;;23.18;14.90;;;;;;;9.39;93.55;100738.50;1690129;84;26556;-81
2022/11/08 01:55:20;;;;;;;20.12;13.90;;;;;;;9.39;93.61;100735.83;1688343;84;25782;-80
2022/11/08 01:57:58;;;;;;;23.50;14.65;;;;;;;9.41;93.65;100738.63;1680018;84;27485;-81
2022/11/08 02:00:24;;;;;;;20.72;13.90;;;;;;;9.42;93.62;100740.30;1680100;84;25728;-81
2022/11/08 02:02:58;;;;;;;21.20;14.30;;;;;;;9.44;93.59;100744.12;1688726;84;25775;-80
2022/11/08 02:05:26;;;;;;;23.87;14.13;;;;;;;9.44;93.64;100736.11;1685169;84;26612;-80
2022/11/08 02:08:13;;;;;;;22.80;14.83;;;;;;;9.46;93.66;100741.61;1685195;84;25751;-80
2022/11/08 02:10:43;;;;;;;23.05;13.85;;;;;;;9.48;93.67;100741.43;1677850;84;27456;-81
2022/11/08 02:13:23;;;;;;;22.47;13.40;;;;;;;9.48;93.63;100736.92;1692374;84;25610;-81
2022/11/08 02:15:50;;;;;;;18.73;13.60;;;;;;;9.49;93.63;100735.09;1687063;84;25879;-81
2022/11/08 02:18:21;;;;;;;22.82;14.58;;;;;;;9.51;93.67;100741.09;1691965;84;25887;-81
2022/11/08 02:20:56;;;;;;;20.88;13.98;;;;;;;9.50;93.67;100736.73;1692846;84;25977;-81
2022/11/08 02:23:46;;;;;;;23.27;13.58;;;;;;;9.51;93.67;100727.22;1680166;84;28234;-82
2022/11/08 02:26:15;;;;;;;25.82;13.68;;;;;;;9.51;93.66;100729.05;1687041;84;26442;-80
2022/11/08 02:28:45;;;;;;;20.82;13.35;;;;;;;9.52;93.68;100733.38;1661125;84;25762;-80
2022/11/08 02:31:15;;;;;;;21.20;12.78;;;;;;;9.51;93.67;100729.05;1691965;84;26692;-80
2022/11/08 02:33:43;;;;;;;20.48;13.65;;;;;;;9.51;93.67;100734.41;1691704;84;25974;-81
2022/11/08 02:36:15;;;;;;;17.42;13.28;;;;;;;9.51;93.73;100732.57;1687788;84;28255;-79
2022/11/08 02:38:49;;;;;;;20.55;13.83;;;;;;;9.52;93.78;100728.87;1691094;84;26260;-80
2022/11/08 02:41:16;;;;;;;20.52;13.35;;;;;;;9.51;93.73;100732.57;1682556;84;25773;-80
2022/11/08 02:43:42;;;;;;;21.62;13.18;;;;;;;9.51;93.73;100732.57;1690947;84;26843;-80
2022/11/08 02:46:08;;;;;;;21.95;12.98;;;;;;;9.51;93.71;100735.24;1687163;84;25910;-79
2022/11/08 02:48:35;;;;;;;22.15;13.58;;;;;;;9.51;93.65;100728.56;1677197;84;27461;-81
2022/11/08 02:51:01;;;;;;;20.45;12.95;;;;;;;9.49;93.49;100729.24;1691527;84;25328;-80
2022/11/08 02:53:27;;;;;;;19.85;12.25;;;;;;;9.50;93.44;100730.05;1690245;84;25813;-80
2022/11/08 02:55:54;;;;;;;21.65;13.08;;;;;;;9.47;93.22;100735.77;1686013;84;25912;-80
2022/11/08 02:58:20;;;;;;;20.85;12.63;;;;;;;9.45;93.13;100739.13;1705525;81;25777;-80
2022/11/08 03:00:47;;;;;;;21.82;13.62;;;;;;;9.43;93.14;100735.80;1706575;83;27453;-80
2022/11/08 03:03:13;;;;;;;22.95;13.70;;;;;;;9.42;93.12;100731.44;1707220;83;26554;-81
2022/11/08 03:05:42;;;;;;;20.30;12.78;;;;;;;9.42;93.11;100742.14;1703578;83;26096;-80
2022/11/08 03:08:08;;;;;;;18.92;13.22;;;;;;;9.40;92.95;100743.66;1712348;83;25822;-80
2022/11/08 03:10:34;;;;;;;19.90;12.20;;;;;;;9.39;92.89;100742.51;1725052;82;25758;-80
2022/11/08 03:13:03;;;;;;;20.75;13.60;;;;;;;9.36;92.84;100742.34;1683296;83;27305;-80
2022/11/08 03:15:30;;;;;;;17.32;11.40;;;;;;;9.36;92.89;100746.36;1707550;83;25996;-80
2022/11/08 03:17:58;;;;;;;19.02;12.95;;;;;;;9.33;92.79;100748.87;1710435;82;25846;-80
2022/11/08 03:20:25;;;;;;;19.67;12.70;;;;;;;9.33;92.82;100747.53;1715643;82;25799;-80
2022/11/08 03:23:00;;;;;;;21.25;12.68;;;;;;;9.32;92.82;100743.71;1708254;82;26114;-80
2022/11/08 03:25:27;;;;;;;18.55;12.70;;;;;;;9.31;92.71;100732.67;1704742;83;28256;-81
2022/11/08 03:27:54;;;;;;;17.02;12.25;;;;;;;9.30;92.68;100731.02;1714198;82;25991;-81
2022/11/08 03:30:20;;;;;;;18.45;11.95;;;;;;;9.27;92.70;100730.86;1705579;83;25823;-81
2022/11/08 03:32:48;;;;;;;19.27;12.35;;;;;;;9.27;92.66;100732.70;1697881;83;26553;-80
2022/11/08 03:35:15;;;;;;;20.48;13.35;;;;;;;9.25;92.68;100735.55;1692804;84;26250;-81
2022/11/08 03:37:53;;;;;;;18.57;11.88;;;;;;;9.26;92.67;100739.88;1691932;84;28355;-81
2022/11/08 03:40:20;;;;;;;20.68;12.80;;;;;;;9.26;92.74;100743.05;1691424;84;26083;-84
2022/11/08 03:42:47;;;;;;;19.57;12.05;;;;;;;9.25;92.84;100744.91;1695762;84;25318;-81
2022/11/08 03:45:14;;;;;;;17.80;11.83;;;;;;;9.23;92.91;100739.41;1684512;83;27132;-80
2022/11/08 03:47:43;;;;;;;18.37;12.03;;;;;;;9.23;92.96;100746.92;1686307;84;25808;-81
2022/11/08 03:50:12;;;;;;;19.17;12.33;;;;;;;9.24;93.02;100745.06;1690686;84;28083;-81
2022/11/08 03:52:50;;;;;;;18.90;12.40;;;;;;;9.22;92.99;100746.58;1692569;84;25309;-82
2022/11/08 03:55:19;;;;;;;21.10;13.48;;;;;;;9.23;93.00;100752.27;1693196;84;25911;-81
2022/11/08 03:57:48;;;;;;;19.60;12.63;;;;;;;9.21;92.91;100744.94;1687222;83;26592;-81
2022/11/08 04:00:18;;;;;;;19.92;12.85;;;;;;;9.22;92.79;100749.25;1695208;83;26480;-82
2022/11/08 04:02:45;;;;;;;20.32;11.93;;;;;;;9.21;92.69;100748.94;1695447;83;27667;-81
2022/11/08 04:05:14;;;;;;;19.32;11.63;;;;;;;9.19;92.59;100738.94;1698119;84;26364;-81
2022/11/08 04:07:40;;;;;;;19.95;12.35;;;;;;;9.20;92.55;100747.76;1694915;84;25788;-81
2022/11/08 04:10:09;;;;;;;18.90;13.30;;;;;;;9.17;92.41;100741.45;1698776;84;25861;-81
2022/11/08 04:15:28;;;;;;;17.30;12.73;;;;;;;9.15;92.48;100751.47;1696771;84;28280;-81
2022/11/08 04:23:34;;;;;;;21.02;12.50;;;;;;;9.08;92.45;100743.81;1690728;84;26065;-80
2022/11/08 04:26:05;;;;;;;23.80;13.22;;;;;;;9.08;92.49;100747.82;1697221;83;25859;-81
2022/11/08 04:28:35;;;;;;;16.85;12.03;;;;;;;9.05;92.38;100744.15;1690791;84;27473;-82
2022/11/08 04:31:07;;;;;;;21.05;12.90;;;;;;;9.03;92.51;100740.82;1697824;84;25616;-82
2022/11/08 04:33:34;;;;;;;18.17;11.85;;;;;;;9.02;92.52;100739.17;1692278;84;25292;-81
2022/11/08 04:36:07;;;;;;;18.98;12.45;;;;;;;9.02;92.57;100738.67;1696849;84;25777;-81
2022/11/08 04:38:34;;;;;;;20.25;12.47;;;;;;;8.99;92.54;100736.83;1697040;84;26071;-82
2022/11/08 04:41:04;;;;;;;19.52;12.20;;;;;;;8.97;92.65;100735.67;1697222;82;27483;-81
2022/11/08 04:43:34;;;;;;;19.10;13.05;;;;;;;8.97;92.67;100741.52;1694755;84;26582;-81
2022/11/08 04:46:07;;;;;;;17.32;12.35;;;;;;;8.97;92.72;100738.84;1697941;84;25303;-81
2022/11/08 04:48:34;;;;;;;20.02;13.03;;;;;;;8.95;92.69;100735.52;1695696;84;25821;-81
2022/11/08 04:51:08;;;;;;;22.17;13.08;;;;;;;8.93;92.77;100738.37;1696469;84;25832;-81
2022/11/08 04:53:35;;;;;;;19.62;12.53;;;;;;;8.94;92.83;100737.88;1696318;84;27627;-81
2022/11/08 04:56:05;;;;;;;24.55;13.55;;;;;;;8.93;92.78;100741.04;1697203;84;25911;-81
2022/11/08 04:58:41;;;;;;;20.77;13.28;;;;;;;8.94;92.86;100739.20;1693235;83;26472;-81
2022/11/08 05:01:10;;;;;;;18.50;12.40;;;;;;;8.93;92.81;100742.37;1695043;84;26538;-80
2022/11/08 05:03:36;;;;;;;25.43;13.68;;;;;;;8.90;92.79;100741.87;1697621;84;26030;-81
2022/11/08 05:06:07;;;;;;;22.52;13.50;;;;;;;8.89;92.89;100743.73;1693977;84;27474;-81
2022/11/08 05:08:33;;;;;;;22.37;13.30;;;;;;;8.90;92.98;100748.55;1691177;83;25894;-81
2022/11/08 05:11:09;;;;;;;21.42;13.93;;;;;;;8.90;93.10;100745.37;1696437;84;26415;-81
2022/11/08 05:13:37;;;;;;;25.75;13.45;;;;;;;8.91;93.28;100743.55;1695872;84;26588;-81
2022/11/08 05:16:08;;;;;;;20.80;13.00;;;;;;;8.91;93.41;100741.72;1696091;84;25944;-81
2022/11/08 05:18:35;;;;;;;21.60;14.40;;;;;;;8.92;93.61;100745.20;1695467;84;27505;-81
2022/11/08 05:23:49;;;;;;;20.95;14.10;;;;;;;8.90;93.98;100748.05;1694287;84;25931;-80
2022/11/08 05:26:18;;;;;;;23.87;13.57;;;;;;;8.91;94.20;100748.89;1693716;84;25768;-81
2022/11/08 05:28:44;;;;;;;21.33;14.20;;;;;;;8.90;94.33;100752.55;1692795;84;26099;-81
2022/11/08 05:31:11;;;;;;;20.57;13.65;;;;;;;8.93;94.42;100757.56;1696594;84;27470;-81
2022/11/08 05:33:38;;;;;;;19.87;13.48;;;;;;;8.95;94.53;100754.22;1690342;84;25773;-81
2022/11/08 05:36:11;;;;;;;20.55;13.78;;;;;;;8.96;94.58;100755.37;1696964;83;25830;-81
2022/11/08 05:38:38;;;;;;;22.07;14.30;;;;;;;8.97;94.59;100746.36;1693015;84;26601;-80
2022/11/08 05:41:12;;;;;;;23.42;14.55;;;;;;;8.98;94.67;100749.34;1691686;84;25947;-80
2022/11/08 05:43:39;;;;;;;23.18;14.55;;;;;;;8.99;94.70;100755.53;1695049;84;27668;-81
2022/11/08 05:46:07;;;;;;;25.32;15.45;;;;;;;9.01;94.74;100753.52;1691267;84;25915;-81
2022/11/08 05:48:34;;;;;;;29.52;15.00;;;;;;;8.99;94.69;100753.70;1693679;84;26202;-81
2022/11/08 05:51:00;;;;;;;24.45;16.10;;;;;;;9.00;94.74;100756.69;1693288;84;25757;-81
2022/11/08 05:53:27;;;;;;;22.25;14.80;;;;;;;9.02;94.79;100755.20;1693973;84;25885;-81
2022/11/08 05:56:02;;;;;;;22.90;15.75;;;;;;;9.03;94.72;100762.20;1695591;84;27511;-81
2022/11/08 05:58:30;;;;;;;23.95;15.30;;;;;;;9.03;94.74;100765.70;1692590;84;25962;-81
2022/11/08 06:01:07;;;;;;;22.37;14.73;;;;;;;9.06;94.80;100771.21;1695119;84;26422;-80
2022/11/08 06:03:34;;;;;;;24.63;15.13;;;;;;;9.08;94.71;100770.04;1697602;84;26191;-81
2022/11/08 06:06:15;;;;;;;22.75;15.00;;;;;;;9.08;94.70;100774.55;1698087;84;25892;-81
2022/11/08 06:08:42;;;;;;;24.35;15.43;;;;;;;9.11;94.72;100774.21;1696440;83;27541;-81
2022/11/08 06:11:15;;;;;;;20.90;13.45;;;;;;;9.13;94.67;100775.67;1694954;84;25830;-80
2022/11/08 06:13:42;;;;;;;21.07;15.10;;;;;;;9.15;94.73;100776.86;1694222;84;26406;-81
2022/11/08 06:16:11;;;;;;;23.05;14.95;;;;;;;9.16;94.77;100780.69;1695270;84;26450;-80
2022/11/08 06:18:39;;;;;;;25.77;15.58;;;;;;;9.20;94.71;100790.52;1693600;84;25523;-79
2022/11/08 06:21:10;;;;;;;22.42;14.75;;;;;;;9.21;94.67;100784.19;1697783;84;28284;-80
2022/11/08 06:23:36;;;;;;;23.80;15.10;;;;;;;9.23;94.66;100783.01;1697598;84;26000;-80
2022/11/08 06:26:03;;;;;;;23.98;15.10;;;;;;;9.25;94.58;100786.84;1693283;84;25772;-80
2022/11/08 06:28:30;;;;;;;24.63;14.65;;;;;;;9.24;94.49;100791.34;1692315;84;26451;-79
2022/11/08 06:31:01;;;;;;;23.32;15.30;;;;;;;9.24;94.45;100793.17;1691936;84;25959;-80
2022/11/08 06:33:28;;;;;;;;;;;;;;;9.26;94.44;100796.50;1695487;84;27454;-81
2022/11/08 06:35:54;;;;;;;22.87;15.00;;;;;;;9.23;94.29;100804.39;1697092;84;25317;-80
2022/11/08 06:38:21;;;;;;;24.95;15.60;;;;;;;9.19;94.47;100803.08;1691481;84;25836;-80
2022/11/08 06:40:47;;;;;;;22.42;15.13;;;;;;;9.20;94.53;100802.55;1712209;83;26329;-81
2022/11/08 06:43:14;;;;;;;22.87;14.45;;;;;;;9.19;94.54;100794.22;1680013;84;26201;-81
2022/11/08 06:45:41;;;;;;;21.20;13.48;;;;;;;9.20;94.58;100798.54;1712416;82;27526;-80
2022/11/08 06:48:08;;;;;;;24.77;15.43;;;;;;;9.20;94.56;100799.37;1716780;83;26271;-80
2022/11/08 06:50:35;;;;;;;21.10;13.43;;;;;;;9.23;94.59;100799.55;1700649;82;25849;-80
2022/11/08 06:53:07;;;;;;;19.65;14.15;;;;;;;9.24;94.60;100795.34;1716790;82;25945;-81
2022/11/08 06:55:34;;;;;;;22.73;14.95;;;;;;;9.25;94.57;100805.55;1709120;83;25934;-81
2022/11/08 06:58:01;;;;;;;23.95;14.63;;;;;;;9.27;94.72;100806.20;1706275;83;28211;-80
2022/11/08 07:00:28;;;;;;;23.50;15.25;;;;;;;9.31;94.77;100807.52;1711126;83;26419;-80
2022/11/08 07:02:59;;;;;;;21.15;14.40;;;;;;;9.33;94.72;100801.00;1712417;82;25815;-81
2022/11/08 07:05:28;;;;;;;20.70;13.50;;;;;;;9.36;94.75;100804.33;1714622;82;26068;-81
2022/11/08 07:07:56;;;;;;;22.20;14.30;;;;;;;9.38;94.69;100811.17;1685571;83;26581;-82
2022/11/08 07:10:27;;;;;;;25.12;14.18;;;;;;;9.40;94.66;100810.99;1714129;83;27444;-81
2022/11/08 07:13:03;;;;;;;23.32;15.03;;;;;;;9.42;94.72;100805.81;1713926;82;25339;-81
2022/11/08 07:15:32;;;;;;;23.73;13.90;;;;;;;9.46;94.75;100809.80;1716856;82;25829;-81
2022/11/08 07:18:05;;;;;;;28.02;14.25;;;;;;;9.48;94.76;100812.28;1682087;84;26932;-81
2022/11/08 07:20:32;;;;;;;23.05;14.23;;;;;;;9.51;94.70;100805.27;1687691;84;25983;-81
2022/11/08 07:22:59;;;;;;;19.90;14.15;;;;;;;9.53;94.59;100806.77;1710960;82;27462;-80
2022/11/08 07:25:26;;;;;;;22.77;14.47;;;;;;;9.56;94.54;100811.74;1715813;82;25807;-81
2022/11/08 07:28:02;;;;;;;22.20;13.95;;;;;;;9.58;94.33;100820.42;1708466;82;25471;-81
2022/11/08 07:30:29;;;;;;;21.52;13.85;;;;;;;9.61;94.32;100820.08;1701774;83;26484;-81
2022/11/08 07:32:57;;;;;;;19.82;13.75;;;;;;;9.64;94.27;100814.89;1706224;82;26119;-80
2022/11/08 07:35:24;;;;;;;20.45;14.30;;;;;;;9.66;94.24;100817.73;1694924;84;27536;-80
2022/11/08 07:37:51;;;;;;;22.35;13.60;;;;;;;9.70;94.28;100816.86;1676814;84;25875;-80
2022/11/08 07:40:17;;;;;;;20.08;14.63;;;;;;;9.75;94.27;100815.84;1692066;84;25952;-81
2022/11/08 07:42:43;;;;;;;23.35;13.78;;;;;;;9.78;94.27;100813.64;1696973;83;26559;-81
2022/11/08 07:45:11;;;;;;;22.50;14.65;;;;;;;9.83;94.23;100818.46;1699520;83;26507;-81
2022/11/08 07:47:38;;;;;;;24.07;16.95;;;;;;;9.89;94.22;100824.44;1694423;84;28304;-81
2022/11/08 07:50:05;;;;;;;30.88;16.80;;;;;;;9.94;94.60;100818.06;1696467;83;25828;-81
2022/11/08 07:52:31;;;;;;;19.77;14.05;;;;;;;10.01;94.55;100821.67;1691133;83;25812;-81
2022/11/08 07:54:58;;;;;;;19.77;13.00;;;;;;;10.05;94.23;100823.82;1697255;83;25845;-81
2022/11/08 07:57:24;;;;;;;23.98;14.78;;;;;;;10.08;93.79;100822.64;1685026;84;25990;-82
2022/11/08 07:59:50;;;;;;;17.02;12.10;;;;;;;10.10;93.78;100824.63;1695258;84;27532;-81
2022/11/08 08:02:16;;;;;;;22.15;13.98;;;;;;;10.13;93.63;100823.48;1691746;84;26218;-85
2022/11/08 08:04:43;;;;;;;21.50;13.00;;;;;;;10.14;93.66;100823.29;1695740;84;26178;-88
2022/11/08 08:07:11;;;;;;;20.68;12.98;;;;;;;10.17;93.51;100824.78;1695688;84;25785;-89
2022/11/08 08:09:37;;;;;;;25.97;15.43;;;;;;;10.19;93.35;100826.77;1688298;84;25848;-87
2022/11/08 08:12:04;;;;;;;22.25;13.85;;;;;;;10.22;93.54;100828.61;1691347;84;27631;-88
2022/11/08 08:14:31;;;;;;;25.48;15.63;;;;;;;10.25;93.41;100824.22;1691922;84;25560;-88
2022/11/08 08:16:57;;;;;;;41.42;19.82;;;;;;;10.28;93.39;100825.20;1686030;84;25837;-87
2022/11/08 08:19:26;;;;;;;30.23;17.02;;;;;;;10.34;93.47;100820.97;1690501;84;25881;-87
2022/11/08 08:21:51;;;;;;;18.92;12.80;;;;;;;10.37;93.45;100822.77;1688585;84;25814;-85
2022/11/08 08:24:18;;;;;;;19.50;12.35;;;;;;;10.42;93.32;100827.09;1710905;83;27456;-81
2022/11/08 08:26:44;;;;;;;19.32;13.00;;;;;;;10.47;93.45;100826.05;1689332;84;25771;-81
2022/11/08 08:29:10;;;;;;;19.73;12.30;;;;;;;10.51;93.41;100826.52;1702397;84;26238;-81
2022/11/08 08:31:36;;;;;;;17.20;11.43;;;;;;;10.55;93.24;100828.66;1699212;84;26574;-81
2022/11/08 08:34:03;;;;;;;20.08;12.28;;;;;;;10.60;93.12;100825.44;1711168;81;26021;-81
2022/11/08 08:36:29;;;;;;;21.30;12.35;;;;;;;10.65;93.12;100828.38;1713777;81;27473;-80
2022/11/08 08:38:56;;;;;;;18.82;11.85;;;;;;;10.67;92.78;100828.53;1685598;84;25771;-81
2022/11/08 08:41:22;;;;;;;19.42;11.88;;;;;;;10.72;92.95;100832.01;1681767;84;25796;-80
2022/11/08 08:43:48;;;;;;;19.73;12.47;;;;;;;10.78;93.01;100828.59;1667526;84;26518;-80
2022/11/08 08:46:15;;;;;;;20.27;11.30;;;;;;;10.83;92.91;100831.58;1691534;84;25324;-81
2022/11/08 08:48:41;;;;;;;19.10;11.50;;;;;;;10.88;92.73;100828.34;1692100;84;27459;-82
2022/11/08 08:51:07;;;;;;;17.57;12.40;;;;;;;10.92;92.78;100828.30;1697151;83;26059;-81
2022/11/08 08:53:34;;;;;;;19.75;12.60;;;;;;;10.97;92.68;100826.72;1691840;84;26421;-80
2022/11/08 08:56:05;;;;;;;19.27;11.70;;;;;;;11.03;92.50;100825.17;1690644;83;26146;-80
2022/11/08 08:58:33;;;;;;;21.27;12.63;;;;;;;11.08;92.57;100821.41;1696846;84;52546;-82
2022/11/08 09:01:03;;;;;;;18.20;11.65;;;;;;;11.13;92.33;100822.55;1696031;84;27478;-82
2022/11/08 09:03:30;;;;;;;17.10;11.78;;;;;;;11.19;92.33;100820.45;1684306;84;25770;-80
2022/11/08 09:06:00;;;;;;;17.07;12.00;;;;;;;11.23;92.16;100819.06;1680813;84;25334;-81
2022/11/08 09:08:27;;;;;;;18.50;10.87;;;;;;;11.26;91.98;100821.39;1682938;84;27041;-81
2022/11/08 09:10:56;;;;;;;18.50;10.88;;;;;;;11.31;91.99;100812.25;1689622;83;26330;-80
2022/11/08 09:13:29;;;;;;;21.57;11.22;;;;;;;11.36;91.88;100821.09;1688197;83;28217;-80
2022/11/08 09:15:57;;;;;;;14.95;10.75;;;;;;;11.42;91.80;100823.02;1695928;83;25963;-85
2022/11/08 09:18:23;;;;;;;15.95;10.40;;;;;;;11.46;91.66;100815.76;1695565;84;25705;-80
2022/11/08 09:20:50;;;;;;;18.70;9.90;;;;;;;11.53;91.84;100826.57;1696993;84;25834;-80
2022/11/08 09:23:16;;;;;;;17.62;10.48;;;;;;;11.58;91.60;100829.53;1697421;84;25874;-79
2022/11/08 09:25:42;;;;;;;19.90;11.12;;;;;;;11.62;91.30;100828.98;1686380;84;27455;-79
2022/11/08 09:28:09;;;;;;;18.17;10.70;;;;;;;11.67;91.51;100835.66;1690121;84;25846;-84
2022/11/08 09:30:35;;;;;;;16.52;10.45;;;;;;;11.73;91.20;100836.24;1717754;83;25869;-83
2022/11/08 09:33:02;;;;;;;17.57;10.82;;;;;;;11.77;91.22;100825.45;1677402;84;25838;-82
2022/11/08 09:35:29;;;;;;;18.23;11.18;;;;;;;11.84;91.19;100834.42;1691194;83;25754;-82
2022/11/08 09:37:56;;;;;;;16.02;10.88;;;;;;;11.88;91.28;100835.70;1693464;83;27467;-82
2022/11/08 09:40:39;;;;;;;16.75;10.32;;;;;;;11.93;91.07;100836.78;1712892;82;25962;-82
2022/11/08 09:43:47;;;;;;;17.15;10.50;;;;;;;11.99;91.05;100833.87;1703668;83;25801;-81
2022/11/08 09:46:50;;;;;;;21.95;11.20;;;;;;;12.03;90.40;100829.78;1696741;83;26124;-81
2022/11/08 09:49:25;;;;;;;12.63;8.98;;;;;;;12.06;90.30;100826.19;1715333;82;25898;-81
2022/11/08 09:51:52;;;;;;;15.75;10.32;;;;;;;12.10;90.26;100822.09;1687839;84;28299;-81
2022/11/08 09:54:36;;;;;;;15.72;9.80;;;;;;;12.16;90.24;100824.55;1709415;83;25799;-81
2022/11/08 09:57:04;;;;;;;12.45;8.80;;;;;;;12.20;90.31;100825.32;1680523;84;25321;-81
2022/11/08 09:59:48;;;;;;;16.73;9.63;;;;;;;12.27;90.34;100822.16;1704690;82;25879;-81
2022/11/08 10:02:20;;;;;;;15.13;8.95;;;;;;;12.32;90.34;100814.38;1693935;83;25332;-82
2022/11/08 10:04:57;;;;;;;17.05;10.03;;;;;;;12.38;90.12;100819.50;1682562;83;28005;-82
2022/11/08 10:07:44;;;;;;;15.90;9.58;;;;;;;12.44;89.97;100821.41;1716598;82;25669;-82
2022/11/08 10:10:39;;;;;;;14.85;8.60;;;;;;;12.49;89.59;100821.64;1678768;84;26474;-81
2022/11/08 10:13:21;;;;;;;15.83;9.08;;;;;;;12.54;89.60;100809.81;1718430;82;25814;-81
2022/11/08 10:16:11;;;;;;;11.55;7.92;;;;;;;12.62;89.50;100810.17;1717803;82;26323;-82
2022/11/08 10:19:14;;;;;;;10.20;7.35;;;;;;;12.67;89.37;100805.05;1716215;81;27713;-81
2022/11/08 10:22:04;;;;;;;18.32;7.70;;;;;;;12.74;89.02;100803.25;1712635;82;25349;-81
2022/11/08 10:24:45;;;;;;;12.85;7.83;;;;;;;12.80;88.74;100805.98;1716175;83;26470;-81
2022/11/08 10:27:26;;;;;;;10.63;7.25;;;;;;;12.85;88.53;100798.69;1702121;83;25835;-79
2022/11/08 10:29:57;;;;;;;12.70;7.70;;;;;;;12.90;88.60;100792.19;1706893;83;32503;-79
2022/11/08 10:32:23;;;;;;;12.35;7.15;;;;;;;12.94;88.14;100796.97;1678987;84;27432;-80
2022/11/08 10:35:04;;;;;;;11.83;6.30;;;;;;;12.99;87.83;100789.16;1686577;84;25353;-79
2022/11/08 10:37:32;;;;;;;12.20;6.72;;;;;;;13.04;87.79;100787.22;1696368;84;25862;-79
2022/11/08 10:40:22;;;;;;;11.75;6.20;;;;;;;13.07;87.68;100780.12;1692863;84;25855;-79
2022/11/08 10:43:20;;;;;;;14.90;7.45;;;;;;;13.11;87.62;100774.66;1688713;84;25892;-79
2022/11/08 10:45:46;;;;;;;16.67;7.22;;;;;;;13.17;87.40;100788.67;1691641;84;27451;-79
2022/11/08 10:48:12;;;;;;;10.03;6.67;;;;;;;13.21;87.44;100784.56;1696296;84;26271;-78
2022/11/08 10:50:51;;;;;;;11.30;7.10;;;;;;;13.27;87.49;100775.69;1681730;84;25782;-79
2022/11/08 10:53:27;;;;;;;11.05;7.03;;;;;;;13.32;87.18;100781.81;1697874;84;26590;-78
2022/11/08 10:56:05;;;;;;;9.03;6.50;;;;;;;13.35;86.85;100775.51;1676719;84;25810;-79
2022/11/08 10:58:42;;;;;;;12.73;6.47;;;;;;;13.39;86.43;100770.55;1691168;84;28291;-79
2022/11/08 11:01:24;;;;;;;10.80;5.78;;;;;;;13.41;86.44;100766.63;1691759;84;25811;-79
2022/11/08 11:03:52;;;;;;;12.93;6.75;;;;;;;13.45;85.73;100766.53;1690691;84;25829;-79
2022/11/08 11:06:28;;;;;;;11.93;6.95;;;;;;;13.50;86.25;100768.13;1684258;84;25801;-79
2022/11/08 11:08:59;;;;;;;16.95;6.83;;;;;;;13.54;86.21;100764.50;1688449;84;25902;-79
2022/11/08 11:11:37;;;;;;;;;;;;;;;13.57;85.81;100764.95;1692044;84;27558;-79
2022/11/08 11:14:20;;;;;;;9.60;6.50;;;;;;;13.61;85.97;100761.32;1692232;84;25769;-79
2022/11/08 11:17:15;;;;;;;10.40;6.58;;;;;;;13.63;86.02;100761.44;1686951;84;25767;-79
2022/11/08 11:19:52;;;;;;;12.28;6.35;;;;;;;13.68;85.85;100768.91;1695777;84;26598;-79
2022/11/08 11:22:30;;;;;;;9.75;5.80;;;;;;;13.72;85.84;100765.61;1687185;83;25918;-79
2022/11/08 11:25:05;;;;;;;9.20;5.10;;;;;;;13.77;85.32;100765.01;1693318;84;27560;-79
2022/11/08 11:27:37;;;;;;;13.05;5.75;;;;;;;13.82;84.86;100763.86;1689528;84;25973;-80
2022/11/08 11:30:24;;;;;;;8.80;5.72;;;;;;;13.85;84.85;100760.27;1691220;84;25439;-79
2022/11/08 11:32:58;;;;;;;12.90;6.58;;;;;;;13.88;84.90;100761.70;1692659;83;26197;-80
2022/11/08 11:35:41;;;;;;;10.50;6.78;;;;;;;13.90;84.94;100757.77;1679959;84;25909;-80
2022/11/08 11:38:25;;;;;;;9.90;5.95;;;;;;;13.93;84.80;100756.03;1694930;84;27447;-80
2022/11/08 11:40:54;;;;;;;9.73;5.87;;;;;;;13.97;84.88;100756.95;1689536;84;25968;-80
2022/11/08 11:43:35;;;;;;;11.20;6.08;;;;;;;14.01;84.96;100748.80;1687939;84;25267;-79
2022/11/08 11:46:22;;;;;;;;;;;;;;;14.03;84.73;100754.27;1687614;84;27230;-80
2022/11/08 11:48:59;;;;;;;8.75;5.25;;;;;;;14.06;84.25;100751.69;1695517;84;25951;-79
2022/11/08 11:51:28;;;;;;;13.15;5.45;;;;;;;14.08;84.23;100757.69;1711526;82;27457;-81
2022/11/08 11:53:57;;;;;;;9.63;5.10;;;;;;;14.12;84.01;100749.51;1700410;83;26461;-80